PARKER HANNIFIN CORP

Pages

PARKER HANNIFIN CORP

$PH

Search Table
Pages

Trade Date Insider Title Buy or Sell Quantity Security Type Price Proceeds Transaction Conviction Position Quantity Position Value Positon Conviction SEC Link Nature of Ownership
2020-04-27Lee C BanksPresident & COOBuy31,340Common Stock$0.00$0.00  -121,997$0.00  9.51     [Average]Form 4
2020-04-27Lee C BanksPresident & COOSell13,173Common Stock$134.95$1,777,696.35  1.03     [ High ]108,824$14,685,798.80  8.49     [Average]Form 4
2020-04-27Martin C MaxwellVP - CTIOBuy7,434Common Stock$0.00$0.00  -27,516$0.00  2.15     [Low]Form 4
2020-04-27Martin C MaxwellVP - CTIOSell3,372Common Stock$134.95$455,051.40  0.26     [ Average ]24,144$3,258,232.80  1.88     [Low]Form 4
2020-04-27Roger S SherrardVP and Pres - Aerospace GroupBuy8,619Common Stock$0.00$0.00  -71,666$0.00  5.59     [Average]Form 4
2020-04-27Roger S SherrardVP and Pres - Aerospace GroupSell3,835Common Stock$134.95$517,533.25  0.30     [ Average ]67,831$9,153,793.45  5.29     [Average]Form 4
2020-04-27Thomas L WilliamsChairman and CEOBuy64,630Common Stock$0.00$0.00  -194,806$0.00  15.19    [Average]Form 4
2020-04-27Thomas L WilliamsChairman and CEOSell28,888Common Stock$134.95$3,898,435.60  2.25     [ High ]165,918$22,390,634.10  12.94    [Average]Form 4
2020-04-27Catherine A SueverExec VP Finance & Admin & CFOBuy14,273Common Stock$0.00$0.00  -38,917$0.00  3.04     [Low]Form 4
2020-04-27Catherine A SueverExec VP Finance & Admin & CFOSell6,272Common Stock$134.95$846,406.40  0.49     [ Average ]32,645$4,405,442.75  2.55     [Low]Form 4
2020-04-27Andrew D RossVP, Pres-Fluid ConnectorsBuy8,619Common Stock$0.00$0.00  -22,273$0.00  1.74     [Low]Form 4
2020-04-27Andrew D RossVP, Pres-Fluid ConnectorsSell3,132Common Stock$134.95$422,663.40  0.24     [ Low ]19,141$2,583,077.95  1.49     [Low]Form 4
2020-04-27Joseph R LeontiVP, General Counsel, SecretaryBuy8,619Common Stock$0.00$0.00  -26,028$0.00  2.03     [Low]Form 4
2020-04-27Joseph R LeontiVP, General Counsel, SecretarySell2,828Common Stock$134.95$381,638.60  0.22     [ Low ]23,200$3,130,840.00  1.81     [Low]Form 4
2020-04-27Robert W MaloneVP, President - Filtration GrpBuy8,408Common Stock$0.00$0.00  -29,731$0.00  2.32     [Low]Form 4
2020-04-27Robert W MaloneVP, President - Filtration GrpSell3,268Common Stock$134.95$441,016.60  0.25     [ Low ]26,463$3,571,181.85  2.06     [Low]Form 4
2020-04-27Jennifer A ParmentierVP Pres-Motion Systems GroupBuy6,708Common Stock$0.00$0.00  -18,078$0.00  1.41     [Low]Form 4
2020-04-27Jennifer A ParmentierVP Pres-Motion Systems GroupSell2,338Common Stock$134.95$315,513.10  0.18     [ Low ]15,740$2,124,113.00  1.23     [Very Low]Form 4
2020-04-27Andrew M WeeksVP, Pres-Engineered Matl GrpBuy8,619Common Stock$0.00$0.00  -15,476$0.00  1.21     [Very Low]Form 4
2020-04-27Andrew M WeeksVP, Pres-Engineered Matl GrpSell2,904Common Stock$134.95$391,894.80  0.23     [ Low ]12,572$1,696,591.40  0.98     [Very Low]Form 4
2020-04-27Mark J HartEVP - HR & External AffairsBuy8,619Common Stock$0.00$0.00  -19,468$0.00  1.52     [Low]Form 4
2020-04-27Mark J HartEVP - HR & External AffairsSell3,112Common Stock$134.95$419,964.40  0.24     [ Low ]16,356$2,207,242.20  1.28     [Very Low]Form 4
2020-04-27William R BowmanVP Pres - Instrumentation GrpBuy6,068Common Stock$0.00$0.00  -8,190$0.00  0.64     [Very Low]Form 4
2020-04-27William R BowmanVP Pres - Instrumentation GrpSell2,491Common Stock$134.95$336,160.45  0.19     [ Low ]5,699$769,080.05  0.44     [Very Low]Form 4
2020-04-27Thomas C GentileVP-Global Supply ChainBuy3,467Common Stock$0.00$0.00  -4,059$0.00  0.32     [Very Low]Form 4
2020-04-27Thomas C GentileVP-Global Supply ChainSell1,089Common Stock$134.95$146,960.55  0.08     [ Very Low ]2,970$400,801.50  0.23     [Very Low]Form 4
2020-04-27Todd M. LeombrunoVP & ControllerBuy2,496Common Stock$0.00$0.00  -5,214$0.00  0.41     [Very Low]Form 4
2020-04-27Todd M. LeombrunoVP & ControllerSell760Common Stock$134.95$102,562.00  0.06     [ Very Low ]4,454$601,067.30  0.35     [Very Low]Form 4
2020-04-27Dinu J ParelVP Chief Information OfficerBuy1,124Common Stock$0.00$0.00  -1,924$0.00  0.15     [Very Low]Form 4
2020-04-27Dinu J ParelVP Chief Information OfficerSell342Common Stock$134.95$46,152.90  0.03     [ Very Low ]1,582$213,490.90  0.12     [Very Low]Form 4
2020-05-01Andrew D RossVP, Pres-Fluid ConnectorsSell50Common Stock$0.00$0.00  -19,091$0.00  1.49     [Low]Form 4
2020-05-01Andrew M WeeksVP, Pres-Engineered Matl GrpSell5,715Common Stock$152.65$872,394.75  0.45     [ Average ]6,857$1,046,721.05  0.53     [Very Low]Form 4
2020-05-27Linda S Harty-Sell3,000Common Stock$182.06$546,180.00  0.23     [ Low ]11,577$2,107,708.62  0.90     [Very Low]Form 4
2020-06-05Andrew D RossVP, Pres-Fluid ConnectorsSell5,000Common Stock$205.18$1,025,900.00  -14,091$2,891,191.38  -Form 4
2020-06-05Catherine A SueverExec VP Finance & Admin & CFOBuy5,200Common Stock$69.10-$359,320.00  -37,845$2,615,089.50  -Form 4
2020-06-05Catherine A SueverExec VP Finance & Admin & CFOSell3,338Common Stock$204.17$681,519.46  -34,507$7,045,294.19  -Form 4
2020-06-05Catherine A SueverExec VP Finance & Admin & CFOSell1,862Common Stock$204.60$380,965.20  -32,645$6,679,167.00  -Form 4
2020-01-25Catherine A SueverExec VP Finance & Admin & CFOSell676Common Stock$198.28$134,037.28  -31,969$6,338,813.32  -Form 4
2020-04-19Catherine A SueverExec VP Finance & Admin & CFOSell664Common Stock$138.60$92,030.40  -31,305$4,338,873.00  -Form 4
2019-10-23Ake Svensson-Sell548Common Stock$187.49$102,744.52  -8,780$1,646,162.20  -Form 4
2020-08-07Martin C MaxwellVP - CTIOSell9,000Common Stock$195.41$1,758,690.00  0.70     [ Average ]15,144$2,959,289.04  1.18     [Very Low]Form 4
2020-08-12Robert W MaloneVP, President - Filtration GrpSell4,881Common Stock$213.06$1,039,945.86  0.38     [ Average ]21,582$4,598,260.92  1.68     [Low]Form 4
2020-08-10Andrew M WeeksVP, Pres-Engineered Matl GrpBuy12,320Common Stock$113.23-$1,394,993.60  0.96     [ High ]19,177$2,171,411.71  1.50     [Low]Form 4
2020-08-10Andrew M WeeksVP, Pres-Engineered Matl GrpSell9,424Common Stock$201.09$1,895,072.16  0.74     [ Average ]9,753$1,961,230.77  0.76     [Very Low]Form 4
2020-08-10Andrew M WeeksVP, Pres-Engineered Matl GrpSell2,896Common Stock$200.95$581,951.20  0.23     [ Low ]6,857$1,377,914.15  0.53     [Very Low]Form 4
2020-08-17Lee C BanksPresident & COOSell480Common Stock$0.00$0.00  -108,344$0.00  8.45     [Average]Form 4
2020-08-26Joseph R LeontiVP, General Counsel, SecretaryBuy4,167Common Stock$158.79-$661,677.93  0.32     [ Average ]27,367$4,345,605.93  2.13     [Low]Form 4
2020-08-26Joseph R LeontiVP, General Counsel, SecretaryBuy3,246Common Stock$166.49-$540,426.54  0.25     [ Low ]30,613$5,096,758.37  2.38     [Low]Form 4
2020-08-26Joseph R LeontiVP, General Counsel, SecretaryBuy4,610Common Stock$158.90-$732,529.00  0.36     [ Average ]35,223$5,596,934.70  2.74     [Low]Form 4
2020-08-26Joseph R LeontiVP, General Counsel, SecretarySell10,513Common Stock$209.53$2,202,788.89  0.82     [ High ]24,710$5,177,486.30  1.92     [Low]Form 4
2020-08-26Joseph R LeontiVP, General Counsel, SecretarySell4,510Common Stock$209.40$944,394.00  0.35     [ Average ]20,200$4,229,880.00  1.57     [Low]Form 4
2020-09-02Lee C BanksPresident & COOBuy34,840Common Stock$106.18-$3,699,311.20  2.71     [ Very High ]143,184$15,203,277.12  11.14    [Average]Form 4
2020-09-02Lee C BanksPresident & COOSell25,353Common Stock$213.59$5,415,147.27  1.97     [ High ]117,831$25,167,523.29  9.17     [Average]Form 4
2020-09-02Lee C BanksPresident & COOSell9,487Common Stock$213.55$2,025,948.85  0.74     [ Average ]108,344$23,136,861.20  8.43     [Average]Form 4
2020-09-02Thomas L WilliamsChairman and CEOBuy34,840Common Stock$106.18-$3,699,311.20  2.71     [ Very High ]200,758$21,316,484.44  15.62    [High]Form 4
2020-09-02Thomas L WilliamsChairman and CEOSell25,444Common Stock$213.50$5,432,294.00  1.98     [ High ]175,314$37,429,539.00  13.64    [Average]Form 4
2020-09-02Thomas L WilliamsChairman and CEOSell9,396Common Stock$213.48$2,005,858.08  0.73     [ Average ]165,918$35,420,174.64  12.91    [Average]Form 4
2020-09-02Catherine A SueverExec VP Finance & Admin & CFOBuy5,230Common Stock$81.86-$428,127.80  0.41     [ Average ]36,535$2,990,755.10  2.84     [Low]Form 4
2020-09-02Catherine A SueverExec VP Finance & Admin & CFOSell3,485Common Stock$213.35$743,524.75  0.27     [ Low ]33,050$7,051,217.50  2.57     [Low]Form 4
2020-09-02Catherine A SueverExec VP Finance & Admin & CFOSell1,745Common Stock$213.42$372,417.90  0.14     [ Low ]31,305$6,681,113.10  2.44     [Low]Form 4
2020-09-02Andrew D RossVP, Pres-Fluid ConnectorsBuy9,040Common Stock$113.19-$1,023,237.60  0.70     [ Average ]23,131$2,618,197.89  1.80     [Low]Form 4
2020-09-02Andrew D RossVP, Pres-Fluid ConnectorsSell6,759Common Stock$213.70$1,444,398.30  0.53     [ Average ]16,372$3,498,696.40  1.27     [Very Low]Form 4
2020-09-02Andrew D RossVP, Pres-Fluid ConnectorsSell2,281Common Stock$213.72$487,495.32  0.18     [ Low ]14,091$3,011,528.52  1.10     [Very Low]Form 4
2020-09-02William R BowmanVP & Pres -Instrumentation GrpBuy4,650Common Stock$106.18-$493,737.00  0.36     [ Average ]10,349$1,098,856.82  0.80     [Very Low]Form 4
2020-09-02William R BowmanVP & Pres -Instrumentation GrpSell3,393Common Stock$212.08$719,587.44  0.26     [ Low ]6,956$1,475,228.48  0.54     [Very Low]Form 4
2020-09-02William R BowmanVP & Pres -Instrumentation GrpSell1,257Common Stock$212.13$266,647.41  0.10     [ Low ]5,699$1,208,928.87  0.44     [Very Low]Form 4
2020-09-16Mark J HartEVP - HR & External AffairsBuy2,920Common Stock$113.19-$330,514.80  0.23     [ Low ]19,276$2,181,850.44  1.50     [Low]Form 4
2020-09-16Mark J HartEVP - HR & External AffairsBuy2,800Common Stock$113.23-$317,044.00  0.22     [ Low ]22,076$2,499,665.48  1.72     [Low]Form 4
2020-09-16Mark J HartEVP - HR & External AffairsSell4,261Common Stock$216.16$921,057.76  0.33     [ Average ]17,815$3,850,890.40  1.39     [Low]Form 4
2020-09-16Mark J HartEVP - HR & External AffairsSell1,459Common Stock$216.16$315,377.44  0.11     [ Low ]16,356$3,535,512.96  1.27     [Very Low]Form 4
2020-10-28Candy M Obourn-Buy729Common Stock$0.00$0.00  -11,417$0.00  0.89     [Very Low]Form 4-
2020-10-28Robert G Bohn-Buy729Common Stock$0.00$0.00  -12,782$0.00  0.99     [Very Low]Form 4-
2020-10-28Joseph Scaminace-Buy729Common Stock$0.00$0.00  -12,852$0.00  1.00     [Very Low]Form 4-
2020-10-28James L Wainscott-Buy729Common Stock$0.00$0.00  -14,662$0.00  1.14     [Very Low]Form 4-
2020-10-28Linda S Harty-Buy729Common Stock$0.00$0.00  -12,322$0.00  0.96     [Very Low]Form 4-
2020-10-28James Verrier-Buy729Common Stock$0.00$0.00  -5,314$0.00  0.41     [Very Low]Form 4-
2020-10-28Ake Svensson-Buy729Common Stock$0.00$0.00  -9,525$0.00  0.74     [Very Low]Form 4-
2020-10-28Ake Svensson-Sell277Common Stock$211.76$58,657.52  0.02     [ Very Low ]9,248$1,958,356.48  0.72     [Very Low]Form 4-
2020-10-28Kevin Lobo-Buy729Common Stock$0.00$0.00  -9,083$0.00  0.71     [Very Low]Form 4-
2020-10-28Laura K Thompson-Buy729Common Stock$0.00$0.00  -2,343$0.00  0.18     [Very Low]Form 4-
2020-11-06Lee C BanksPresident & COOBuy26,240Common Stock$113.19-$2,970,105.60  2.04     [ High ]134,584$15,233,562.96  10.45    [Average]Form 4-
2020-11-06Lee C BanksPresident & COOSell18,806Common Stock$237.39$4,464,356.34  1.46     [ High ]115,778$27,484,539.42  8.99     [Average]Form 4-
2020-11-06Lee C BanksPresident & COOSell7,434Common Stock$237.52$1,765,723.68  0.58     [ Average ]108,344$25,733,866.88  8.41     [Average]Form 4-
2020-11-06Joseph Scaminace-Sell5,386Common Stock$237.64$1,279,929.04  0.42     [ Average ]7,466$1,774,220.24  0.58     [Very Low]Form 4-
2020-11-06Martin C MaxwellVP - CTIOBuy11,080Common Stock$113.19-$1,254,145.20  0.86     [ High ]26,224$2,968,294.56  2.04     [Low]Form 4-
2020-11-06Martin C MaxwellVP - CTIOBuy10,640Common Stock$113.23-$1,204,767.20  0.83     [ High ]36,864$4,174,110.72  2.86     [Low]Form 4-
2020-11-06Martin C MaxwellVP - CTIOSell15,579Common Stock$236.92$3,690,976.68  1.21     [ High ]21,285$5,042,842.20  1.65     [Low]Form 4-
2020-11-06Martin C MaxwellVP - CTIOSell6,141Common Stock$237.44$1,458,119.04  0.48     [ Average ]15,144$3,595,791.36  1.18     [Very Low]Form 4-
2020-11-06Thomas L WilliamsChairman and CEOBuy26,240Common Stock$113.19-$2,970,105.60  2.04     [ High ]192,158$21,750,364.02  14.92    [Average]Form 4-
2020-11-06Thomas L WilliamsChairman and CEOSell18,883Common Stock$237.11$4,477,348.13  1.47     [ High ]173,275$41,085,235.25  13.45    [Average]Form 4-
2020-11-06Thomas L WilliamsChairman and CEOSell7,357Common Stock$237.23$1,745,301.11  0.57     [ Average ]165,918$39,360,727.14  12.88    [Average]Form 4-
2020-11-06Andrew D RossVP, Pres-Fluid ConnectorsBuy12,320Common Stock$113.23-$1,394,993.60  0.96     [ High ]26,411$2,990,517.53  2.05     [Low]Form 4-
2020-11-06Andrew D RossVP, Pres-Fluid ConnectorsSell8,871Common Stock$236.83$2,100,918.93  0.69     [ Average ]17,540$4,153,998.20  1.36     [Low]Form 4-
2020-11-06Andrew D RossVP, Pres-Fluid ConnectorsSell3,449Common Stock$236.97$817,309.53  0.27     [ Low ]14,091$3,339,144.27  1.09     [Very Low]Form 4-
2020-11-09Andrew D RossVP, Pres-Fluid ConnectorsBuy14,070Common Stock$124.36-$1,749,745.20  1.09     [ High ]28,161$3,502,101.96  2.19     [Low]Form 4-
2020-11-09Andrew D RossVP, Pres-Fluid ConnectorsSell10,209Common Stock$254.56$2,598,803.04  0.79     [ Average ]17,952$4,569,861.12  1.39     [Low]Form 4-
2020-11-09Andrew D RossVP, Pres-Fluid ConnectorsSell3,861Common Stock$255.16$985,172.76  0.30     [ Average ]14,091$3,595,459.56  1.09     [Very Low]Form 4-
2020-11-06Robert W MaloneVP, President - Filtration GrpBuy2,920Common Stock$113.19-$330,514.80  0.23     [ Low ]24,502$2,773,381.38  1.90     [Low]Form 4-
2020-11-06Robert W MaloneVP, President - Filtration GrpBuy8,680Common Stock$113.23-$982,836.40  0.67     [ Average ]33,182$3,757,197.86  2.58     [Low]Form 4-
2020-11-06Robert W MaloneVP, President - Filtration GrpSell8,338Common Stock$237.99$1,984,360.62  0.65     [ Average ]24,844$5,912,623.56  1.93     [Low]Form 4-
2020-11-06Robert W MaloneVP, President - Filtration GrpSell3,262Common Stock$237.99$776,323.38  0.25     [ Low ]21,582$5,136,300.18  1.68     [Low]Form 4-
2020-11-09Robert W MaloneVP, President - Filtration GrpBuy9,910Common Stock$124.36-$1,232,407.60  0.77     [ Average ]31,492$3,916,345.12  2.45     [Low]Form 4-
2020-11-09Robert W MaloneVP, President - Filtration GrpSell7,205Common Stock$253.18$1,824,161.90  0.56     [ Average ]24,287$6,148,982.66  1.89     [Low]Form 4-
2020-11-09Robert W MaloneVP, President - Filtration GrpSell2,705Common Stock$253.05$684,500.25  0.21     [ Low ]21,582$5,461,325.10  1.68     [Low]Form 4-
2020-11-06Jennifer A ParmentierVP & President- Motion Sys. GrBuy2,330Common Stock$113.19-$263,732.70  0.18     [ Low ]12,060$1,365,071.40  0.94     [Very Low]Form 4-
2020-11-06Jennifer A ParmentierVP & President- Motion Sys. GrBuy8,680Common Stock$113.23-$982,836.40  0.67     [ Average ]26,750$3,028,902.50  2.08     [Low]Form 4-
2020-11-06Jennifer A ParmentierVP & President- Motion Sys. GrSell7,894Common Stock$237.31$1,873,325.14  0.61     [ Average ]18,856$4,474,717.36  1.46     [Low]Form 4-
2020-11-06Jennifer A ParmentierVP & President- Motion Sys. GrSell3,116Common Stock$237.35$739,582.60  0.24     [ Low ]15,740$3,735,889.00  1.22     [Very Low]Form 4-
2020-11-09Jennifer A ParmentierVP & President- Motion Sys. GrBuy9,910Common Stock$124.36-$1,232,407.60  0.77     [ Average ]25,650$3,189,834.00  1.99     [Low]Form 4-
2020-11-09Jennifer A ParmentierVP & President- Motion Sys. GrSell7,102Common Stock$260.94$1,853,195.88  0.55     [ Average ]18,548$4,839,915.12  1.44     [Low]Form 4-
2020-11-09Jennifer A ParmentierVP & President- Motion Sys. GrSell2,808Common Stock$262.35$736,678.80  0.22     [ Low ]15,740$4,129,389.00  1.22     [Very Low]Form 4-
2020-11-06Andrew M WeeksVP, Pres-Engineered Matl GrpBuy14,070Common Stock$124.36-$1,749,745.20  1.09     [ High ]20,927$2,602,481.72  1.62     [Low]Form 4-
2020-11-06Andrew M WeeksVP, Pres-Engineered Matl GrpSell10,458Common Stock$237.90$2,487,958.20  0.81     [ High ]10,469$2,490,575.10  0.81     [Very Low]Form 4-
2020-11-06Andrew M WeeksVP, Pres-Engineered Matl GrpSell3,612Common Stock$237.88$859,222.56  0.28     [ Low ]6,857$1,631,143.16  0.53     [Very Low]Form 4-
2020-11-09Mark J HartEVP - HR & External AffairsBuy14,070Common Stock$124.36-$1,749,745.20  1.09     [ High ]30,426$3,783,777.36  2.36     [Low]Form 4-
2020-11-09Mark J HartEVP - HR & External AffairsSell10,221Common Stock$253.76$2,593,680.96  0.79     [ Average ]20,205$5,127,220.80  1.57     [Low]Form 4-
2020-11-09Mark J HartEVP - HR & External AffairsSell3,849Common Stock$254.44$979,339.56  0.30     [ Average ]16,356$4,161,620.64  1.27     [Very Low]Form 4-
2020-11-06William R BowmanVP & Pres -Instrumentation GrpBuy3,500Common Stock$113.19-$396,165.00  0.27     [ Low ]9,199$1,041,234.81  0.71     [Very Low]Form 4-
2020-11-06William R BowmanVP & Pres -Instrumentation GrpBuy3,360Common Stock$113.23-$380,452.80  0.26     [ Low ]12,559$1,422,055.57  0.98     [Very Low]Form 4-
2020-11-06William R BowmanVP & Pres -Instrumentation GrpSell4,912Common Stock$238.14$1,169,743.68  0.38     [ Average ]7,647$1,821,056.58  0.59     [Very Low]Form 4-
2020-11-06William R BowmanVP & Pres -Instrumentation GrpSell1,948Common Stock$238.01$463,643.48  0.15     [ Low ]5,699$1,356,418.99  0.44     [Very Low]Form 4-
2020-11-09William R BowmanVP & Pres -Instrumentation GrpBuy9,910Common Stock$124.36-$1,232,407.60  0.77     [ Average ]15,609$1,941,135.24  1.21     [Very Low]Form 4-
2020-11-09William R BowmanVP & Pres -Instrumentation GrpSell7,170Common Stock$254.15$1,822,255.50  0.56     [ Average ]8,439$2,144,771.85  0.66     [Very Low]Form 4-
2020-11-09William R BowmanVP & Pres -Instrumentation GrpSell2,740Common Stock$253.81$695,439.40  0.21     [ Low ]5,699$1,446,463.19  0.44     [Very Low]Form 4-
2020-11-06Thomas C GentileVP-Global Supply ChainBuy410Common Stock$113.23-$46,424.30  0.03     [ Very Low ]3,380$382,717.40  0.26     [Very Low]Form 4-
2020-11-06Thomas C GentileVP-Global Supply ChainSell285Common Stock$236.46$67,391.10  0.02     [ Very Low ]3,095$731,843.70  0.24     [Very Low]Form 4-
2020-11-06Thomas C GentileVP-Global Supply ChainSell125Common Stock$236.79$29,598.75  -2,970$703,266.30  0.23     [Very Low]Form 4-
2020-11-09Thomas C GentileVP-Global Supply ChainBuy940Common Stock$124.36-$116,898.40  0.07     [ Very Low ]3,910$486,247.60  0.30     [Very Low]Form 4-
2020-11-09Thomas C GentileVP-Global Supply ChainSell684Common Stock$252.83$172,935.72  0.05     [ Very Low ]3,226$815,629.58  0.25     [Very Low]Form 4-
2020-11-09Thomas C GentileVP-Global Supply ChainSell256Common Stock$252.91$64,744.96  0.02     [ Very Low ]2,970$751,142.70  0.23     [Very Low]Form 4-
2020-11-06Todd M. LeombrunoVP & ControllerBuy440Common Stock$69.10-$30,404.00  0.03     [ Very Low ]4,894$338,175.40  0.38     [Very Low]Form 4-
2020-11-06Todd M. LeombrunoVP & ControllerBuy440Common Stock$81.86-$36,018.40  0.03     [ Very Low ]5,334$436,641.24  0.41     [Very Low]Form 4-
2020-11-06Todd M. LeombrunoVP & ControllerBuy540Common Stock$106.18-$57,337.20  0.04     [ Very Low ]5,874$623,701.32  0.46     [Very Low]Form 4-
2020-11-06Todd M. LeombrunoVP & ControllerSell801Common Stock$237.06$189,885.06  0.06     [ Very Low ]5,073$1,202,605.38  0.39     [Very Low]Form 4-
2020-11-06Todd M. LeombrunoVP & ControllerSell619Common Stock$237.06$146,740.14  0.05     [ Very Low ]4,454$1,055,865.24  0.35     [Very Low]Form 4-
2020-11-12Candy M Obourn-Sell1,166Common Stock$257.01$299,673.66  0.09     [ Very Low ]10,251$2,634,609.51  0.80     [Very Low]Form 4-
2020-11-16Ake Svensson-Sell2,000Common Stock$264.72$529,440.00  0.16     [ Low ]7,248$1,918,690.56  0.56     [Very Low]Form 4-
2020-11-17Joseph Scaminace-Sell892Common Stock$0.00$0.00  -6,574$0.00  0.51     [Very Low]Form 4-
2020-11-17Joseph Scaminace-Buy892Common Stock$0.00$0.00  -3,574$0.00  0.28     [Very Low]Form 4Joseph Scaminace Foundation
2020-11-23Martin C MaxwellVP - CTIOBuy12,150Common Stock$124.36-$1,510,974.00  0.94     [ High ]27,294$3,394,281.84  2.12     [Low]Form 4-
2020-11-23Martin C MaxwellVP - CTIOSell8,589Common Stock$271.08$2,328,306.12  0.67     [ Average ]18,705$5,070,551.40  1.45     [Low]Form 4-
2020-11-23Martin C MaxwellVP - CTIOSell3,561Common Stock$271.36$966,312.96  0.28     [ Low ]15,144$4,109,475.84  1.18     [Very Low]Form 4-
2021-01-20Lee C BanksPresident & COOSell86Common Stock$0.00$0.00  -549$0.00  0.04     [Very Low]Form 4Lee and Elizabeth Banks Family Foundation
2021-01-27Lance M Fritz-Buy547Restricted Stock Units$0.00$0.00  -547$0.00  0.04     [Very Low]Form 4-
2021-01-27Jillian C. Evanko-Buy547Restricted Stock Units$0.00$0.00  -547$0.00  0.04     [Very Low]Form 4-
2021-03-01Andrew D RossVP, Pres-Fluid ConnectorsSell2,594Common Stock$298.82$775,139.08  0.20     [ Low ]11,497$3,435,533.54  0.89     [Very Low]Form 4-
2021-03-03Roger S SherrardVP and Pres - Aerospace GroupBuy6,625Common Stock$81.86-$542,322.50  0.51     [ Average ]78,995$6,466,530.70  6.12     [Average]Form 4-
2021-03-03Roger S SherrardVP and Pres - Aerospace GroupSell3,552Common Stock$298.74$1,061,124.48  0.28     [ Average ]75,443$22,537,841.82  5.84     [Average]Form 4-
2021-03-08Lance M Fritz-Buy3,900Common Stock$299.82-$1,169,298.00  0.30     [ Average ]3,914$1,173,495.48  0.30     [Very Low]Form 4-
2021-03-08Lee C BanksPresident & COOBuy22,281Common Stock$116.46-$2,594,845.26  1.73     [ High ]130,625$15,212,587.50  10.12    [Average]Form 4-
2021-03-08Lee C BanksPresident & COOSell14,430Common Stock$300.00$4,329,000.00  1.12     [ High ]116,195$34,858,500.00  9.00     [Average]Form 4-
2021-03-08Lee C BanksPresident & COOSell7,851Common Stock$300.00$2,355,300.00  0.61     [ Average ]108,344$32,503,200.00  8.39     [Average]Form 4-
2021-03-08Thomas L WilliamsChairman and CEOBuy33,422Common Stock$116.46-$3,892,326.12  2.59     [ Very High ]199,340$23,215,136.40  15.44    [High]Form 4-
2021-03-08Thomas L WilliamsChairman and CEOSell21,991Common Stock$299.77$6,592,242.07  1.70     [ High ]177,349$53,163,909.73  13.74    [Average]Form 4-
2021-03-08Thomas L WilliamsChairman and CEOSell11,431Common Stock$299.80$3,427,013.80  0.89     [ High ]165,918$49,742,216.40  12.85    [Average]Form 4-
2021-03-10Roger S SherrardVP and Pres - Aerospace GroupSell850Common Stock$302.39$257,031.50  0.07     [ Very Low ]74,593$22,556,177.27  5.78     [Average]Form 4-
2021-03-11Linda S Harty-Sell7,719Common Stock$311.69$2,405,935.11  0.60     [ Average ]4,607$1,435,955.83  0.36     [Very Low]Form 4-
2021-03-23Thomas L WilliamsChairman and CEOSell320Common Stock$0.00$0.00  -165,598$0.00  12.83    [Average]Form 4-
2021-04-22Lee C BanksPresident & COOBuy25,382Common Stock$0.00$0.00  -133,726$0.00  10.36    [Average]Form 4-
2021-04-22Lee C BanksPresident & COOSell11,764Common Stock$317.60$3,736,246.40  0.91     [ High ]121,962$38,735,131.20  9.45     [Average]Form 4-
2021-04-22Roger S SherrardVP and Pres - Aerospace GroupBuy6,614Common Stock$0.00$0.00  -81,207$0.00  6.29     [Average]Form 4-
2021-04-22Roger S SherrardVP and Pres - Aerospace GroupSell3,066Common Stock$317.60$973,761.60  0.24     [ Low ]78,141$24,817,581.60  6.05     [Average]Form 4-
2021-04-22Thomas L WilliamsChairman and CEOBuy52,950Common Stock$0.00$0.00  -218,548$0.00  16.93    [High]Form 4-
2021-04-22Thomas L WilliamsChairman and CEOSell24,541Common Stock$317.60$7,794,221.60  1.90     [ High ]194,007$61,616,623.20  15.03    [High]Form 4-
2021-04-22Andrew D RossVP, Pres-Fluid ConnectorsBuy6,614Common Stock$0.00$0.00  -18,111$0.00  1.40     [Low]Form 4-
2021-04-22Andrew D RossVP, Pres-Fluid ConnectorsSell2,686Common Stock$317.60$853,073.60  0.21     [ Low ]15,425$4,898,980.00  1.19     [Very Low]Form 4-
2021-04-22Joseph R LeontiVP, General Counsel, SecretaryBuy7,179Common Stock$0.00$0.00  -27,379$0.00  2.12     [Low]Form 4-
2021-04-22Joseph R LeontiVP, General Counsel, SecretarySell2,846Common Stock$317.60$903,889.60  0.22     [ Low ]24,533$7,791,680.80  1.90     [Low]Form 4-
2021-04-22Robert W MaloneVP, President - Filtration GrpBuy6,614Common Stock$0.00$0.00  -28,196$0.00  2.18     [Low]Form 4-
2021-04-22Robert W MaloneVP, President - Filtration GrpSell2,629Common Stock$317.60$834,970.40  0.20     [ Low ]25,567$8,120,079.20  1.98     [Low]Form 4-
2021-04-22Jennifer A ParmentierVP Pres-Motion Systems GroupBuy5,735Common Stock$0.00$0.00  -21,475$0.00  1.66     [Low]Form 4-
2021-04-22Jennifer A ParmentierVP Pres-Motion Systems GroupSell2,248Common Stock$317.60$713,964.80  0.17     [ Low ]19,227$6,106,495.20  1.49     [Low]Form 4-
2021-04-22Andrew M WeeksVP, Pres-Engineered Matl GrpBuy6,614Common Stock$0.00$0.00  -13,471$0.00  1.04     [Very Low]Form 4-
2021-04-22Andrew M WeeksVP, Pres-Engineered Matl GrpSell2,618Common Stock$317.60$831,476.80  0.20     [ Low ]10,853$3,446,912.80  0.84     [Very Low]Form 4-
2021-04-22Mark J HartEVP - HR & External AffairsBuy7,179Common Stock$0.00$0.00  -23,535$0.00  1.82     [Low]Form 4-
2021-04-22Mark J HartEVP - HR & External AffairsSell2,950Common Stock$317.60$936,920.00  0.23     [ Low ]20,585$6,537,796.00  1.59     [Low]Form 4-
2021-04-22William R BowmanVP Pres - Instrumentation GrpBuy4,501Common Stock$0.00$0.00  -10,200$0.00  0.79     [Very Low]Form 4-
2021-04-22William R BowmanVP Pres - Instrumentation GrpSell1,676Common Stock$317.60$532,297.60  0.13     [ Low ]8,524$2,707,222.40  0.66     [Very Low]Form 4-
2021-04-22Thomas C GentileVP-Global Supply ChainBuy3,098Common Stock$0.00$0.00  -6,068$0.00  0.47     [Very Low]Form 4-
2021-04-22Thomas C GentileVP-Global Supply ChainSell1,027Common Stock$317.60$326,175.20  0.08     [ Very Low ]5,041$1,601,021.60  0.39     [Very Low]Form 4-
2021-04-22Todd M. LeombrunoExecutive VP & CFOBuy2,314Common Stock$0.00$0.00  -6,768$0.00  0.52     [Very Low]Form 4-
2021-04-22Todd M. LeombrunoExecutive VP & CFOSell714Common Stock$317.60$226,766.40  0.06     [ Very Low ]6,054$1,922,750.40  0.47     [Very Low]Form 4-
2021-04-22Dinu J ParelVP & Chief Digital & IOBuy1,726Common Stock$0.00$0.00  -3,308$0.00  0.26     [Very Low]Form 4-
2021-04-22Dinu J ParelVP & Chief Digital & IOSell542Common Stock$317.60$172,139.20  0.04     [ Very Low ]2,766$878,481.60  0.21     [Very Low]Form 4-
2021-04-22Mark T CzajaVP-Chief Technology & Innov.Buy929Common Stock$0.00$0.00  -929$0.00  0.07     [Very Low]Form 4-
2021-04-22Mark T CzajaVP-Chief Technology & Innov.Sell276Common Stock$317.60$87,657.60  0.02     [ Very Low ]653$207,392.80  0.05     [Very Low]Form 4-
2021-04-30Andrew M WeeksVP, Pres-Engineered Matl GrpSell3,996Common Stock$312.72$1,249,629.12  0.31     [ Average ]6,857$2,144,321.04  0.53     [Very Low]Form 4-
2021-05-03Mark T CzajaVP-Chief Technology & Innov.Sell653Common Stock$310.82$202,965.46  0.05     [ Very Low ]0$0.00  -Form 4-
2021-05-05Lee C BanksPresident & COOSell13,618Common Stock$316.34$4,307,918.12  1.05     [ High ]108,344$34,273,540.96  8.39     [Average]Form 4-